createdAt,value
2017-09-26T00:02:05.555Z,15.31
2017-09-26T00:04:31.823Z,15.30
2017-09-26T00:06:58.814Z,15.45
2017-09-26T00:09:25.081Z,15.41
2017-09-26T00:11:51.335Z,15.56
2017-09-26T00:14:18.312Z,15.49
2017-09-26T00:16:44.541Z,15.48
2017-09-26T00:19:10.793Z,15.54
2017-09-26T00:21:37.031Z,15.47
2017-09-26T00:24:03.390Z,15.51
2017-09-26T00:26:30.706Z,15.40
2017-09-26T00:28:56.938Z,15.28
2017-09-26T00:31:23.187Z,15.34
2017-09-26T00:33:49.472Z,15.35
2017-09-26T00:36:15.726Z,15.40
2017-09-26T00:38:42.002Z,15.44
2017-09-26T00:41:09.033Z,15.40
2017-09-26T00:43:36.016Z,15.30
2017-09-26T00:46:02.262Z,15.33
2017-09-26T00:48:28.536Z,15.36
2017-09-26T00:50:55.546Z,15.36
2017-09-26T00:53:21.833Z,15.26
2017-09-26T00:55:48.094Z,15.32
2017-09-26T00:58:14.364Z,15.47
2017-09-26T01:00:40.637Z,15.30
2017-09-26T01:03:06.969Z,15.21
2017-09-26T01:08:33.759Z,15.18
2017-09-26T01:10:59.978Z,15.25
2017-09-26T01:13:26.208Z,15.23
2017-09-26T01:15:52.441Z,15.12
2017-09-26T01:18:18.659Z,14.98
2017-09-26T01:20:44.953Z,15.03
2017-09-26T01:23:11.414Z,15.10
2017-09-26T01:25:37.688Z,15.09
2017-09-26T01:28:04.704Z,15.12
2017-09-26T01:30:30.975Z,15.13
2017-09-26T01:32:57.948Z,14.91
2017-09-26T01:35:24.154Z,14.92
2017-09-26T01:37:51.159Z,14.94
2017-09-26T01:40:17.363Z,15.00
2017-09-26T01:42:43.578Z,15.13
2017-09-26T01:45:12.397Z,15.07
2017-09-26T01:47:38.798Z,15.03
2017-09-26T01:50:05.023Z,15.02
2017-09-26T01:52:31.289Z,15.28
2017-09-26T01:54:57.523Z,15.04
2017-09-26T01:57:24.650Z,14.85
2017-09-26T01:59:51.696Z,14.93
2017-09-26T02:02:17.905Z,14.83
2017-09-26T02:04:44.124Z,14.75
2017-09-26T02:07:10.583Z,14.80
2017-09-26T02:09:36.783Z,14.79
2017-09-26T02:12:03.104Z,14.91
2017-09-26T02:14:30.075Z,14.88
2017-09-26T02:16:56.296Z,14.94
2017-09-26T02:19:22.511Z,14.90
2017-09-26T02:21:48.739Z,15.03
2017-09-26T02:24:14.956Z,14.93
2017-09-26T02:26:41.916Z,14.95
2017-09-26T02:29:08.149Z,15.04
2017-09-26T02:31:34.356Z,15.01
2017-09-26T02:34:01.361Z,14.91
2017-09-26T02:36:27.616Z,14.98
2017-09-26T02:38:53.898Z,14.99
2017-09-26T02:41:20.093Z,14.91
2017-09-26T02:43:47.052Z,14.77
2017-09-26T02:46:13.260Z,14.67
2017-09-26T02:48:40.255Z,14.68
2017-09-26T02:51:06.495Z,14.75
2017-09-26T02:53:32.712Z,15.04
2017-09-26T02:55:58.952Z,14.98
2017-09-26T02:58:25.165Z,14.98
2017-09-26T03:00:51.384Z,14.89
2017-09-26T03:03:17.826Z,14.91
2017-09-26T03:05:44.032Z,15.02
2017-09-26T03:08:10.244Z,15.10
2017-09-26T03:10:36.571Z,15.09
2017-09-26T03:13:03.520Z,15.12
2017-09-26T03:15:29.743Z,15.17
2017-09-26T03:17:55.954Z,15.06
2017-09-26T03:20:22.920Z,15.06
2017-09-26T03:22:49.180Z,15.07
2017-09-26T03:25:15.388Z,14.99
2017-09-26T03:27:41.595Z,15.08
2017-09-26T03:30:08.894Z,15.01
2017-09-26T03:32:35.853Z,14.98
2017-09-26T03:35:02.132Z,15.02
2017-09-26T03:37:28.560Z,15.05
2017-09-26T03:39:55.520Z,14.98
2017-09-26T03:42:21.739Z,14.92
2017-09-26T03:44:47.968Z,14.89
2017-09-26T03:47:14.184Z,14.86
2017-09-26T03:49:41.136Z,15.01
2017-09-26T03:52:07.384Z,14.91
2017-09-26T03:54:33.597Z,15.12
2017-09-26T03:56:59.829Z,15.01
2017-09-26T03:59:26.088Z,15.05
2017-09-26T04:01:52.309Z,15.00
2017-09-26T04:04:18.548Z,15.15
2017-09-26T04:06:45.172Z,15.05
2017-09-26T04:09:11.428Z,15.02
2017-09-26T04:11:37.672Z,15.02
2017-09-26T04:14:03.901Z,15.05
2017-09-26T04:16:30.143Z,15.05
2017-09-26T04:18:57.179Z,14.96
2017-09-26T04:21:24.171Z,14.96
2017-09-26T04:23:50.400Z,15.17
2017-09-26T04:26:16.680Z,14.96
2017-09-26T04:28:43.662Z,15.01
2017-09-26T04:31:09.916Z,15.06
2017-09-26T04:33:36.196Z,15.10
2017-09-26T04:36:03.163Z,15.09
2017-09-26T04:38:29.379Z,15.25
2017-09-26T04:40:55.651Z,15.36
2017-09-26T04:43:21.880Z,15.09
2017-09-26T04:45:48.111Z,15.14
2017-09-26T04:48:14.628Z,15.07
2017-09-26T04:50:40.836Z,15.16
2017-09-26T04:53:07.040Z,15.27
2017-09-26T04:55:34.000Z,15.25
2017-09-26T04:58:00.213Z,15.23
2017-09-26T05:00:27.211Z,15.34
2017-09-26T05:02:53.747Z,15.30
2017-09-26T05:05:20.007Z,15.29
2017-09-26T05:07:46.222Z,15.23
2017-09-26T05:10:12.460Z,15.32
2017-09-26T05:12:38.695Z,15.28
2017-09-26T05:15:04.969Z,15.19
2017-09-26T05:17:31.192Z,15.29
2017-09-26T05:19:57.584Z,15.36
2017-09-26T05:22:24.565Z,15.25
2017-09-26T05:24:50.793Z,15.37
2017-09-26T05:27:17.056Z,15.47
2017-09-26T05:29:43.272Z,15.31
2017-09-26T05:32:09.490Z,15.33
2017-09-26T05:34:35.733Z,15.40
2017-09-26T05:37:01.975Z,15.36
2017-09-26T05:39:28.204Z,15.33
2017-09-26T05:41:54.436Z,15.43
2017-09-26T05:44:20.698Z,15.42
2017-09-26T05:46:47.659Z,15.44
2017-09-26T05:49:13.925Z,15.56
2017-09-26T05:51:40.879Z,15.63
2017-09-26T05:54:07.112Z,15.54
2017-09-26T05:56:33.412Z,15.74
2017-09-26T05:59:00.753Z,15.77
2017-09-26T06:01:29.269Z,15.90
2017-09-26T06:03:55.602Z,16.06
2017-09-26T06:06:21.812Z,16.01
2017-09-26T06:08:48.029Z,16.14
2017-09-26T06:11:14.272Z,16.00
2017-09-26T06:13:40.526Z,16.13
2017-09-26T06:16:06.785Z,16.25
2017-09-26T06:18:33.752Z,16.01
2017-09-26T06:20:59.963Z,15.98
2017-09-26T06:23:26.220Z,16.04
2017-09-26T06:25:52.444Z,15.92
2017-09-26T06:28:18.662Z,16.05
2017-09-26T06:30:46.069Z,16.02
2017-09-26T06:33:12.739Z,15.93
2017-09-26T06:35:40.603Z,15.96
2017-09-26T06:38:07.721Z,15.98
2017-09-26T06:40:35.040Z,16.15
2017-09-26T06:43:02.080Z,16.24
2017-09-26T06:45:28.671Z,16.21
2017-09-26T06:47:56.595Z,16.22
2017-09-26T06:50:23.965Z,16.18
2017-09-26T06:52:50.285Z,16.27
2017-09-26T06:55:16.508Z,16.43
2017-09-26T06:57:43.869Z,16.42
2017-09-26T07:00:10.463Z,16.38
2017-09-26T07:02:37.866Z,16.42
2017-09-26T07:05:05.854Z,16.42
2017-09-26T07:07:32.967Z,16.36
2017-09-26T07:09:59.205Z,16.39
2017-09-26T07:12:25.515Z,16.55
2017-09-26T07:14:51.752Z,16.48
2017-09-26T07:17:18.419Z,16.51
2017-09-26T07:19:44.631Z,16.34
2017-09-26T07:22:10.988Z,16.33
2017-09-26T07:24:37.204Z,16.29
2017-09-26T07:27:03.504Z,16.40
2017-09-26T07:29:30.131Z,16.19
2017-09-26T07:31:56.352Z,16.25
2017-09-26T07:34:22.593Z,16.29
2017-09-26T07:36:48.989Z,16.16
2017-09-26T07:39:16.312Z,16.11
2017-09-26T07:41:43.138Z,16.19
2017-09-26T07:44:09.537Z,16.16
2017-09-26T07:46:35.801Z,16.83
2017-09-26T07:49:02.085Z,16.58
2017-09-26T07:51:28.330Z,16.82
2017-09-26T07:53:54.945Z,16.47
2017-09-26T07:56:22.255Z,16.56
2017-09-26T07:58:48.516Z,16.65
2017-09-26T08:01:16.161Z,16.47
2017-09-26T08:03:43.894Z,16.60
2017-09-26T08:06:11.060Z,16.76
2017-09-26T08:08:38.320Z,16.82
2017-09-26T08:11:04.852Z,16.80
2017-09-26T08:13:31.067Z,16.82
2017-09-26T08:15:58.387Z,17.01
2017-09-26T08:18:26.712Z,16.84
2017-09-26T08:20:53.254Z,16.66
2017-09-26T08:23:19.484Z,16.57
2017-09-26T08:25:45.723Z,16.82
2017-09-26T08:28:12.702Z,16.49
2017-09-26T08:30:38.920Z,16.51
2017-09-26T08:33:06.584Z,16.48
2017-09-26T08:35:33.011Z,16.46
2017-09-26T08:37:59.299Z,16.54
2017-09-26T08:40:25.712Z,16.81
2017-09-26T08:42:51.927Z,16.77
2017-09-26T08:45:18.163Z,16.95
2017-09-26T08:47:44.395Z,16.83
2017-09-26T08:50:10.953Z,16.74
2017-09-26T08:52:37.212Z,16.79
2017-09-26T08:55:04.163Z,16.47
2017-09-26T08:57:31.113Z,16.58
2017-09-26T08:59:58.070Z,16.48
2017-09-26T09:02:24.345Z,16.65
2017-09-26T09:04:50.976Z,16.61
2017-09-26T09:07:17.192Z,16.94
2017-09-26T09:09:43.900Z,17.17
2017-09-26T09:12:10.569Z,17.13
2017-09-26T09:14:37.060Z,16.80
2017-09-26T09:17:03.873Z,16.69
2017-09-26T09:19:30.416Z,16.86
2017-09-26T09:21:57.636Z,16.99
2017-09-26T09:24:24.983Z,17.01
2017-09-26T09:26:53.052Z,16.97
2017-09-26T09:29:20.332Z,16.75
2017-09-26T09:31:48.019Z,16.67
2017-09-26T09:34:15.473Z,16.82
2017-09-26T09:36:43.475Z,16.75
2017-09-26T09:39:10.045Z,16.73
2017-09-26T09:41:37.198Z,16.75
2017-09-26T09:44:05.086Z,16.95
2017-09-26T09:46:32.112Z,17.10
2017-09-26T09:49:00.051Z,16.93
2017-09-26T09:51:27.966Z,16.83
2017-09-26T09:53:54.452Z,16.87
2017-09-26T09:56:20.676Z,16.92
2017-09-26T09:58:46.898Z,17.03
2017-09-26T10:01:13.140Z,17.02
2017-09-26T10:03:39.356Z,16.94
2017-09-26T10:06:05.564Z,17.14
2017-09-26T10:08:33.054Z,17.03
2017-09-26T10:10:59.284Z,16.89
2017-09-26T10:13:25.496Z,16.86
2017-09-26T10:15:52.113Z,16.94
2017-09-26T10:18:19.080Z,16.91
2017-09-26T10:20:45.298Z,16.94
2017-09-26T10:23:11.740Z,17.21
2017-09-26T10:25:37.992Z,17.20
2017-09-26T10:28:04.347Z,17.19
2017-09-26T10:30:30.588Z,17.24
2017-09-26T10:32:58.045Z,17.33
2017-09-26T10:35:24.933Z,17.31
2017-09-26T10:37:51.313Z,17.37
2017-09-26T10:40:19.111Z,17.29
2017-09-26T10:42:45.401Z,17.44
2017-09-26T10:45:11.615Z,17.43
2017-09-26T10:47:37.816Z,17.23
2017-09-26T10:50:04.044Z,17.35
2017-09-26T10:52:30.259Z,17.30
2017-09-26T10:54:56.461Z,17.49
2017-09-26T10:57:23.444Z,17.38
2017-09-26T10:59:49.658Z,17.70
2017-09-26T11:02:15.921Z,17.71
2017-09-26T11:04:42.193Z,17.97
2017-09-26T11:07:09.161Z,18.06
2017-09-26T11:09:35.381Z,17.72
2017-09-26T11:12:01.616Z,17.70
2017-09-26T11:14:27.815Z,17.84
2017-09-26T11:16:54.794Z,17.88
2017-09-26T11:19:21.187Z,18.13
2017-09-26T11:21:47.408Z,18.13
2017-09-26T11:24:13.612Z,18.15
2017-09-26T11:26:39.836Z,18.13
2017-09-26T11:29:06.036Z,17.93
2017-09-26T11:31:32.261Z,17.98
2017-09-26T11:33:58.518Z,18.12
2017-09-26T11:36:24.743Z,18.24
2017-09-26T11:38:51.341Z,18.27
2017-09-26T11:41:18.335Z,18.20
2017-09-26T11:43:44.549Z,18.27
2017-09-26T11:46:10.772Z,18.20
2017-09-26T11:48:37.007Z,18.50
2017-09-26T11:51:03.240Z,18.24
2017-09-26T11:53:29.455Z,18.43
2017-09-26T11:55:55.688Z,18.19
2017-09-26T11:58:21.896Z,18.26
2017-09-26T12:00:48.125Z,18.01
2017-09-26T12:03:14.510Z,18.24
2017-09-26T12:05:40.768Z,18.16
2017-09-26T12:08:07.715Z,18.39
2017-09-26T12:10:34.697Z,18.14
2017-09-26T12:13:07.039Z,18.04
2017-09-26T12:15:33.264Z,18.05
2017-09-26T12:17:59.484Z,18.15
2017-09-26T12:20:26.433Z,18.36
2017-09-26T12:22:53.393Z,18.20
2017-09-26T12:25:19.621Z,18.19
2017-09-26T12:27:45.860Z,18.32
2017-09-26T12:30:12.064Z,18.21
2017-09-26T12:32:38.325Z,18.28
2017-09-26T12:35:04.532Z,18.50
2017-09-26T12:37:30.744Z,18.70
2017-09-26T12:39:57.013Z,18.94
2017-09-26T12:42:23.260Z,18.66
2017-09-26T12:44:49.458Z,18.81
2017-09-26T12:47:15.671Z,18.86
2017-09-26T12:49:41.880Z,18.72
2017-09-26T12:52:08.832Z,18.71
2017-09-26T12:54:35.074Z,18.75
2017-09-26T12:57:01.287Z,19.01
2017-09-26T12:59:27.515Z,19.11
2017-09-26T13:01:53.780Z,19.50
2017-09-26T13:04:19.989Z,19.74
2017-09-26T13:06:46.208Z,20.02
2017-09-26T13:09:12.443Z,20.02
2017-09-26T13:11:38.652Z,20.18
2017-09-26T13:14:05.600Z,20.30
2017-09-26T13:16:32.289Z,20.38
2017-09-26T13:18:58.529Z,20.22
2017-09-26T13:21:24.766Z,20.30
2017-09-26T13:23:51.009Z,19.99
2017-09-26T13:26:17.968Z,20.13
2017-09-26T13:28:44.172Z,20.07
2017-09-26T13:31:11.120Z,19.87
2017-09-26T13:33:38.071Z,19.65
2017-09-26T13:36:05.015Z,19.72
2017-09-26T13:38:31.957Z,19.38
2017-09-26T13:41:00.798Z,19.21
2017-09-26T13:43:27.949Z,19.19
2017-09-26T13:45:55.822Z,19.23
2017-09-26T13:48:24.399Z,19.10
2017-09-26T13:50:51.529Z,18.94
2017-09-26T13:53:17.749Z,18.86
2017-09-26T13:55:44.659Z,18.95
2017-09-26T13:58:11.036Z,18.99
2017-09-26T14:00:37.261Z,19.16
2017-09-26T14:03:03.499Z,19.06
2017-09-26T14:05:29.907Z,18.97
2017-09-26T14:07:56.388Z,19.10
2017-09-26T14:10:22.731Z,19.16
2017-09-26T14:12:48.932Z,19.11
2017-09-26T14:15:15.220Z,19.18
2017-09-26T14:17:42.188Z,19.09
2017-09-26T14:20:08.554Z,19.16
2017-09-26T14:22:34.767Z,19.19
2017-09-26T14:25:01.008Z,19.21
2017-09-26T14:27:27.223Z,19.35
2017-09-26T14:29:53.427Z,19.49
2017-09-26T14:32:19.988Z,19.30
2017-09-26T14:34:46.199Z,19.36
2017-09-26T14:37:12.429Z,19.15
2017-09-26T14:39:38.642Z,19.03
2017-09-26T14:42:04.854Z,19.19
2017-09-26T14:44:31.831Z,18.95
2017-09-26T14:46:58.048Z,18.91
2017-09-26T14:49:24.261Z,18.93
2017-09-26T14:51:50.500Z,18.92
2017-09-26T14:54:16.719Z,19.01
2017-09-26T14:56:42.928Z,19.21
2017-09-26T14:59:09.897Z,19.26
2017-09-26T15:01:36.129Z,19.15
2017-09-26T15:04:02.390Z,19.18
2017-09-26T15:06:28.595Z,19.24
2017-09-26T15:08:55.043Z,19.13
2017-09-26T15:11:22.052Z,19.18
2017-09-26T15:13:48.544Z,19.25
2017-09-26T15:16:16.883Z,19.38
2017-09-26T15:18:43.891Z,19.18
2017-09-26T15:21:10.840Z,18.86
2017-09-26T15:23:37.794Z,18.85
2017-09-26T15:26:04.756Z,18.93
2017-09-26T15:28:30.953Z,18.97
2017-09-26T15:30:57.937Z,18.74
2017-09-26T15:33:24.160Z,18.91
2017-09-26T15:35:50.369Z,18.93
2017-09-26T15:38:17.432Z,18.75
2017-09-26T15:40:43.636Z,18.60
2017-09-26T15:43:10.596Z,18.47
2017-09-26T15:45:36.803Z,18.41
2017-09-26T15:48:03.762Z,18.66
2017-09-26T15:50:30.837Z,18.70
2017-09-26T15:52:57.054Z,18.62
2017-09-26T15:55:23.256Z,18.33
2017-09-26T15:57:50.240Z,18.40
2017-09-26T16:00:16.479Z,18.49
2017-09-26T16:02:42.693Z,18.29
2017-09-26T16:05:09.131Z,18.41
2017-09-26T16:07:35.345Z,18.58
2017-09-26T16:10:01.600Z,18.31
2017-09-26T16:12:27.987Z,18.45
2017-09-26T16:14:54.196Z,18.26
2017-09-26T16:17:21.164Z,18.40
2017-09-26T16:19:47.425Z,18.23
2017-09-26T16:22:13.632Z,18.12
2017-09-26T16:24:39.872Z,18.10
2017-09-26T16:27:06.096Z,18.04
2017-09-26T16:29:32.307Z,18.01
2017-09-26T16:31:58.533Z,18.11
2017-09-26T16:34:24.743Z,18.43
2017-09-26T16:36:51.731Z,18.17
2017-09-26T16:39:18.019Z,18.22
2017-09-26T16:41:45.200Z,18.16
2017-09-26T16:44:11.396Z,18.37
2017-09-26T16:46:38.380Z,18.27
2017-09-26T16:49:04.596Z,18.01
2017-09-26T16:51:31.251Z,18.00
2017-09-26T16:53:58.201Z,17.90
2017-09-26T16:56:24.674Z,17.94
2017-09-26T16:58:50.915Z,17.74
2017-09-26T17:01:18.003Z,17.95
2017-09-26T17:03:44.224Z,17.88
2017-09-26T17:06:10.573Z,17.91
2017-09-26T17:08:37.048Z,17.98
2017-09-26T17:11:03.315Z,18.00
2017-09-26T17:13:29.529Z,17.92
2017-09-26T17:15:55.748Z,17.89
2017-09-26T17:18:22.736Z,18.04
2017-09-26T17:20:49.156Z,17.95
2017-09-26T17:23:15.383Z,17.84
2017-09-26T17:25:42.053Z,17.55
2017-09-26T17:28:08.801Z,17.54
2017-09-26T17:30:35.020Z,17.60
2017-09-26T17:33:01.270Z,17.47
2017-09-26T17:35:28.585Z,17.63
2017-09-26T17:37:54.964Z,17.63
2017-09-26T17:40:22.017Z,17.53
2017-09-26T17:42:48.883Z,17.48
2017-09-26T17:45:15.481Z,17.35
2017-09-26T17:47:42.874Z,17.51
2017-09-26T17:50:09.150Z,17.55
2017-09-26T17:52:35.381Z,17.40
2017-09-26T17:55:01.609Z,17.39
2017-09-26T17:57:28.624Z,17.42
2017-09-26T17:59:55.192Z,17.23
2017-09-26T18:02:21.483Z,17.27
2017-09-26T18:04:47.821Z,17.27
2017-09-26T18:07:14.124Z,17.27
2017-09-26T18:09:40.614Z,17.12
2017-09-26T18:12:07.288Z,17.22
2017-09-26T18:14:33.565Z,17.10
2017-09-26T18:16:59.854Z,17.11
2017-09-26T18:19:26.423Z,17.17
2017-09-26T18:21:52.705Z,17.04
2017-09-26T18:24:19.392Z,17.27
2017-09-26T18:26:45.964Z,17.27
2017-09-26T18:29:12.318Z,16.97
2017-09-26T18:31:38.621Z,17.08
2017-09-26T18:34:05.589Z,17.18
2017-09-26T18:36:31.923Z,16.85
2017-09-26T18:38:58.544Z,17.04
2017-09-26T18:41:25.633Z,17.05
2017-09-26T18:43:52.100Z,17.04
2017-09-26T18:46:18.462Z,16.97
2017-09-26T18:48:44.784Z,17.06
2017-09-26T18:51:13.181Z,17.18
2017-09-26T18:53:39.540Z,17.29
2017-09-26T18:56:05.859Z,17.11
2017-09-26T18:58:32.287Z,17.23
2017-09-26T19:00:59.031Z,17.11
2017-09-26T19:03:25.302Z,16.88
2017-09-26T19:05:51.619Z,17.15
2017-09-26T19:08:17.930Z,17.15
2017-09-26T19:10:44.540Z,17.21
2017-09-26T19:13:11.131Z,17.27
2017-09-26T19:15:37.425Z,17.16
2017-09-26T19:18:03.889Z,17.22
2017-09-26T19:20:30.597Z,17.14
2017-09-26T19:22:57.079Z,16.90
2017-09-26T19:25:23.590Z,17.06
2017-09-26T19:27:50.136Z,17.17
2017-09-26T19:30:16.415Z,16.79
2017-09-26T19:32:42.900Z,16.86
2017-09-26T19:35:09.380Z,16.98
2017-09-26T19:37:36.384Z,16.94
2017-09-26T19:40:02.709Z,17.23
2017-09-26T19:42:29.294Z,17.18
2017-09-26T19:44:55.889Z,16.99
2017-09-26T19:47:22.101Z,16.89
2017-09-26T19:49:48.813Z,16.71
2017-09-26T19:52:15.212Z,16.52
2017-09-26T19:54:41.545Z,16.72
2017-09-26T19:57:08.521Z,16.64
2017-09-26T19:59:34.910Z,16.72
2017-09-26T20:02:01.975Z,16.88
2017-09-26T20:04:29.379Z,16.69
2017-09-26T20:06:55.967Z,16.83
2017-09-26T20:09:22.318Z,16.91
2017-09-26T20:11:48.550Z,16.75
2017-09-26T20:14:14.828Z,16.66
2017-09-26T20:16:41.109Z,16.71
2017-09-26T20:19:07.782Z,16.53
2017-09-26T20:21:34.045Z,16.56
2017-09-26T20:24:01.058Z,16.88
2017-09-26T20:26:27.306Z,16.83
2017-09-26T20:28:53.528Z,16.78
2017-09-26T20:31:19.986Z,17.10
2017-09-26T20:33:46.259Z,16.88
2017-09-26T20:36:12.468Z,16.79
2017-09-26T20:38:38.684Z,16.57
2017-09-26T20:41:05.131Z,16.61
2017-09-26T20:43:31.331Z,16.86
2017-09-26T20:45:58.275Z,16.92
2017-09-26T20:48:25.245Z,16.81
2017-09-26T20:50:51.463Z,16.44
2017-09-26T20:53:17.742Z,16.47
2017-09-26T20:55:44.021Z,16.32
2017-09-26T20:58:10.265Z,16.44
2017-09-26T21:00:36.572Z,16.25
2017-09-26T21:03:02.839Z,16.40
2017-09-26T21:05:29.055Z,16.33
2017-09-26T21:07:55.269Z,16.43
2017-09-26T21:10:21.500Z,16.39
2017-09-26T21:12:47.753Z,16.50
2017-09-26T21:15:14.172Z,16.53
2017-09-26T21:17:40.401Z,16.30
2017-09-26T21:20:06.668Z,16.28
2017-09-26T21:22:33.717Z,16.19
2017-09-26T21:25:02.657Z,15.97
2017-09-26T21:27:28.920Z,15.91
2017-09-26T21:29:55.445Z,15.95
2017-09-26T21:32:21.665Z,15.77
2017-09-26T21:34:47.876Z,15.70
2017-09-26T21:37:14.131Z,15.44
2017-09-26T21:39:40.414Z,15.27
2017-09-26T21:42:06.640Z,15.17
2017-09-26T21:44:33.832Z,15.27
2017-09-26T21:47:00.040Z,15.09
2017-09-26T21:49:26.276Z,15.09
2017-09-26T21:51:52.587Z,15.06
2017-09-26T21:54:18.804Z,15.13
2017-09-26T21:56:45.775Z,15.13
2017-09-26T21:59:11.999Z,14.99
2017-09-26T22:01:38.212Z,14.95
2017-09-26T22:04:04.464Z,14.91
2017-09-26T22:06:30.682Z,14.92
2017-09-26T22:08:56.910Z,14.77
2017-09-26T22:11:23.156Z,14.78
2017-09-26T22:13:49.647Z,14.70
2017-09-26T22:16:16.595Z,14.57
2017-09-26T22:18:43.596Z,14.55
2017-09-26T22:21:10.140Z,14.68
2017-09-26T22:23:36.918Z,14.63
2017-09-26T22:26:03.155Z,14.75
2017-09-26T22:28:29.368Z,14.73
2017-09-26T22:30:56.619Z,14.75
2017-09-26T22:33:23.589Z,14.77
2017-09-26T22:35:50.158Z,14.74
2017-09-26T22:38:16.399Z,14.61
2017-09-26T22:40:42.623Z,14.69
2017-09-26T22:43:08.848Z,14.68
2017-09-26T22:45:35.361Z,14.68
2017-09-26T22:48:01.628Z,14.78
2017-09-26T22:50:27.896Z,14.73
2017-09-26T22:52:54.445Z,14.68
2017-09-26T22:55:20.796Z,14.64
2017-09-26T22:57:47.343Z,14.49
2017-09-26T23:00:13.577Z,14.50
2017-09-26T23:02:39.824Z,14.54
2017-09-26T23:05:06.783Z,14.49
2017-09-26T23:07:33.807Z,14.56
2017-09-26T23:10:00.007Z,14.57
2017-09-26T23:12:26.210Z,14.53
2017-09-26T23:14:52.462Z,14.40
2017-09-26T23:17:18.690Z,14.67
2017-09-26T23:19:44.927Z,14.63
2017-09-26T23:22:11.351Z,14.68
2017-09-26T23:24:37.556Z,14.90
2017-09-26T23:27:03.782Z,14.54
2017-09-26T23:29:30.030Z,14.55
2017-09-26T23:31:56.233Z,14.81
2017-09-26T23:34:22.466Z,14.78
2017-09-26T23:36:49.026Z,14.59
2017-09-26T23:39:15.258Z,14.69
2017-09-26T23:41:41.459Z,14.61
2017-09-26T23:44:07.953Z,14.57
2017-09-26T23:46:34.911Z,14.75
2017-09-26T23:49:01.932Z,14.58
2017-09-26T23:51:28.175Z,14.65
2017-09-26T23:53:55.119Z,14.66
2017-09-26T23:56:22.101Z,14.76
2017-09-26T23:58:48.315Z,14.88
